createdAt,value
2019-01-24T00:01:05.770Z,-5.20
2019-01-24T00:03:35.205Z,-5.20
2019-01-24T00:06:05.075Z,-5.20
2019-01-24T00:08:34.496Z,-5.20
2019-01-24T00:11:04.410Z,-5.20
2019-01-24T00:13:33.836Z,-5.20
2019-01-24T00:16:03.641Z,-5.20
2019-01-24T00:18:33.072Z,-5.20
2019-01-24T00:21:02.546Z,-5.20
2019-01-24T00:23:32.335Z,-5.20
2019-01-24T00:26:02.872Z,-5.10
2019-01-24T00:28:32.568Z,-5.10
2019-01-24T00:31:02.046Z,-5.10
2019-01-24T00:33:31.487Z,-5.20
2019-01-24T00:36:01.292Z,-5.20
2019-01-24T00:38:30.740Z,-5.20
2019-01-24T00:41:00.177Z,-5.20
2019-01-24T00:43:29.634Z,-5.20
2019-01-24T00:45:59.132Z,-5.20
2019-01-24T00:48:28.542Z,-5.20
2019-01-24T00:50:57.985Z,-5.20
2019-01-24T00:53:27.708Z,-5.20
2019-01-24T00:55:57.139Z,-5.20
2019-01-24T00:58:26.590Z,-5.20
2019-01-24T01:00:56.011Z,-5.20
2019-01-24T01:03:25.950Z,-5.20
2019-01-24T01:05:55.342Z,-5.20
2019-01-24T01:08:25.465Z,-5.20
2019-01-24T01:10:54.901Z,-5.20
2019-01-24T01:13:24.526Z,-5.20
2019-01-24T01:15:53.973Z,-5.10
2019-01-24T01:18:23.449Z,-5.10
2019-01-24T01:20:53.116Z,-5.20
2019-01-24T01:23:22.542Z,-5.10
2019-01-24T01:25:51.977Z,-5.20
2019-01-24T01:28:21.401Z,-5.10
2019-01-24T01:30:51.071Z,-5.20
2019-01-24T01:33:20.485Z,-5.20
2019-01-24T01:35:49.981Z,-5.30
2019-01-24T01:38:19.829Z,-5.20
2019-01-24T01:40:49.277Z,-5.30
2019-01-24T01:43:18.717Z,-5.30
2019-01-24T01:45:48.341Z,-5.20
2019-01-24T01:48:17.823Z,-5.20
2019-01-24T01:50:47.252Z,-5.30
2019-01-24T01:53:16.765Z,-5.30
2019-01-24T01:55:46.294Z,-5.30
2019-01-24T01:58:15.743Z,-5.30
2019-01-24T02:00:45.573Z,-5.30
2019-01-24T02:03:15.011Z,-5.30
2019-01-24T02:05:44.570Z,-5.30
2019-01-24T02:08:14.270Z,-5.30
2019-01-24T02:10:43.723Z,-5.30
2019-01-24T02:13:13.271Z,-5.40
2019-01-24T02:15:42.981Z,-5.30
2019-01-24T02:18:12.563Z,-5.30
2019-01-24T02:20:43.521Z,-5.30
2019-01-24T02:23:12.997Z,-5.20
2019-01-24T02:25:42.727Z,-5.20
2019-01-24T02:28:12.172Z,-5.20
2019-01-24T02:30:41.595Z,-5.20
2019-01-24T02:33:11.180Z,-5.20
2019-01-24T02:35:40.675Z,-5.20
2019-01-24T02:38:10.131Z,-5.20
2019-01-24T02:40:39.639Z,-5.20
2019-01-24T02:43:09.244Z,-5.20
2019-01-24T02:45:38.715Z,-5.20
2019-01-24T02:48:08.183Z,-5.20
2019-01-24T02:50:37.844Z,-5.10
2019-01-24T02:53:07.285Z,-5.10
2019-01-24T02:55:36.716Z,-5.10
2019-01-24T02:58:06.409Z,-5.10
2019-01-24T03:00:35.891Z,-5.10
2019-01-24T03:03:05.307Z,-5.00
2019-01-24T03:05:35.155Z,-5.00
2019-01-24T03:08:04.613Z,-5.00
2019-01-24T03:10:34.433Z,-5.00
2019-01-24T03:13:03.897Z,-5.10
2019-01-24T03:15:33.374Z,-5.00
2019-01-24T03:18:03.170Z,-5.00
2019-01-24T03:20:32.608Z,-5.00
2019-01-24T03:23:02.060Z,-5.10
2019-01-24T03:25:31.736Z,-5.10
2019-01-24T03:28:01.188Z,-5.00
2019-01-24T03:30:30.668Z,-5.00
2019-01-24T03:33:00.517Z,-5.00
2019-01-24T03:35:29.924Z,-5.10
2019-01-24T03:37:59.344Z,-5.00
2019-01-24T03:40:29.077Z,-5.00
2019-01-24T03:42:58.526Z,-5.00
2019-01-24T03:45:27.945Z,-5.00
2019-01-24T03:47:57.376Z,-5.00
2019-01-24T03:50:26.980Z,-5.20
2019-01-24T03:52:56.585Z,-5.10
2019-01-24T03:55:26.000Z,-5.10
2019-01-24T03:57:55.936Z,-5.10
2019-01-24T04:00:26.208Z,-5.10
2019-01-24T04:02:56.053Z,-5.10
2019-01-24T04:05:26.327Z,-5.20
2019-01-24T04:07:55.752Z,-5.30
2019-01-24T04:10:25.167Z,-5.30
2019-01-24T04:12:54.925Z,-5.30
2019-01-24T04:15:25.942Z,-5.40
2019-01-24T04:17:55.429Z,-5.40
2019-01-24T04:20:24.850Z,-5.40
2019-01-24T04:22:54.496Z,-5.40
2019-01-24T04:25:23.951Z,-5.40
2019-01-24T04:27:53.430Z,-5.40
2019-01-24T04:30:23.957Z,-5.40
2019-01-24T04:32:53.532Z,-5.40
2019-01-24T04:35:23.218Z,-5.40
2019-01-24T04:37:53.080Z,-5.40
2019-01-24T04:40:22.551Z,-5.40
2019-01-24T04:42:51.975Z,-5.40
2019-01-24T04:45:21.736Z,-5.40
2019-01-24T04:47:51.208Z,-5.40
2019-01-24T04:50:21.046Z,-5.30
2019-01-24T04:52:50.500Z,-5.30
2019-01-24T04:55:21.021Z,-5.30
2019-01-24T04:57:50.829Z,-5.30
2019-01-24T05:00:23.003Z,-5.30
2019-01-24T05:02:52.496Z,-5.40
2019-01-24T05:05:27.725Z,-5.40
2019-01-24T05:07:53.563Z,-5.40
2019-01-24T05:10:23.000Z,-5.40
2019-01-24T05:12:52.713Z,-5.40
2019-01-24T05:15:22.197Z,-5.40
2019-01-24T05:17:51.653Z,-5.40
2019-01-24T05:20:21.265Z,-5.40
2019-01-24T05:22:50.744Z,-5.50
2019-01-24T05:25:20.187Z,-5.50
2019-01-24T05:27:49.834Z,-5.60
2019-01-24T05:30:25.515Z,-5.50
2019-01-24T05:32:55.429Z,-5.60
2019-01-24T05:35:25.274Z,-5.50
2019-01-24T05:37:54.728Z,-5.60
2019-01-24T05:40:24.175Z,-5.50
2019-01-24T05:42:53.627Z,-5.50
2019-01-24T05:45:23.262Z,-5.60
2019-01-24T05:47:52.712Z,-5.50
2019-01-24T05:50:22.129Z,-5.50
2019-01-24T05:52:51.542Z,-5.50
2019-01-24T05:55:21.212Z,-5.50
2019-01-24T05:57:50.637Z,-5.50
2019-01-24T06:00:26.690Z,-5.50
2019-01-24T06:02:56.166Z,-5.50
2019-01-24T06:05:26.002Z,-5.50
2019-01-24T06:07:55.465Z,-5.50
2019-01-24T06:10:25.200Z,-5.40
2019-01-24T06:12:54.655Z,-5.60
2019-01-24T06:15:24.284Z,-5.50
2019-01-24T06:17:54.061Z,-5.50
2019-01-24T06:20:23.465Z,-5.50
2019-01-24T06:22:52.957Z,-5.60
2019-01-24T06:25:22.635Z,-5.60
2019-01-24T06:27:52.066Z,-5.60
2019-01-24T06:30:21.760Z,-5.60
2019-01-24T06:32:51.346Z,-5.60
2019-01-24T06:35:20.806Z,-5.70
2019-01-24T06:37:51.137Z,-5.70
2019-01-24T06:40:20.898Z,-5.70
2019-01-24T06:42:50.351Z,-5.70
2019-01-24T06:45:21.433Z,-5.70
2019-01-24T06:47:51.006Z,-5.70
2019-01-24T06:50:20.671Z,-5.70
2019-01-24T06:52:50.140Z,-5.70
2019-01-24T06:55:25.911Z,-5.80
2019-01-24T06:57:55.603Z,-5.80
2019-01-24T07:00:25.237Z,-5.70
2019-01-24T07:02:54.687Z,-5.60
2019-01-24T07:05:24.114Z,-5.60
2019-01-24T07:07:53.865Z,-5.70
2019-01-24T07:10:24.408Z,-5.70
2019-01-24T07:12:53.856Z,-5.70
2019-01-24T07:15:24.121Z,-5.70
2019-01-24T07:17:53.788Z,-5.80
2019-01-24T07:20:23.221Z,-5.80
2019-01-24T07:22:52.685Z,-5.80
2019-01-24T07:25:27.355Z,-5.80
2019-01-24T07:27:56.860Z,-5.90
2019-01-24T07:30:26.539Z,-5.90
2019-01-24T07:32:55.950Z,-5.80
2019-01-24T07:35:25.379Z,-5.80
2019-01-24T07:37:54.899Z,-5.80
2019-01-24T07:40:24.672Z,-5.80
2019-01-24T07:42:54.181Z,-5.70
2019-01-24T07:45:26.463Z,-5.70
2019-01-24T07:47:56.190Z,-5.60
2019-01-24T07:50:25.744Z,-5.60
2019-01-24T07:52:55.552Z,-5.60
2019-01-24T07:55:25.081Z,-5.50
2019-01-24T07:57:54.599Z,-5.50
2019-01-24T08:00:26.052Z,-5.50
2019-01-24T08:02:55.540Z,-5.50
2019-01-24T08:05:26.641Z,-5.50
2019-01-24T08:07:56.866Z,-5.40
2019-01-24T08:10:27.000Z,-5.40
2019-01-24T08:12:56.533Z,-5.40
2019-01-24T08:15:26.328Z,-5.30
2019-01-24T08:17:55.857Z,-5.30
2019-01-24T08:20:27.887Z,-5.30
2019-01-24T08:22:57.361Z,-5.30
2019-01-24T08:25:27.146Z,-5.20
2019-01-24T08:27:56.612Z,-5.10
2019-01-24T08:30:31.496Z,-5.10
2019-01-24T08:33:01.089Z,-5.00
2019-01-24T08:35:31.075Z,-5.00
2019-01-24T08:38:00.537Z,-4.90
2019-01-24T08:40:30.264Z,-4.90
2019-01-24T08:42:59.890Z,-4.70
2019-01-24T08:45:29.529Z,-4.70
2019-01-24T08:47:59.044Z,-4.80
2019-01-24T08:50:29.108Z,-4.60
2019-01-24T08:52:58.626Z,-4.70
2019-01-24T08:55:47.434Z,-4.60
2019-01-24T08:58:17.183Z,-4.50
2019-01-24T09:00:46.903Z,-4.60
2019-01-24T09:03:17.132Z,-4.60
2019-01-24T09:05:47.026Z,-4.50
2019-01-24T09:08:16.594Z,-4.40
2019-01-24T09:10:46.366Z,-4.40
2019-01-24T09:13:16.155Z,-4.40
2019-01-24T09:15:45.705Z,-4.50
2019-01-24T09:18:15.243Z,-4.40
2019-01-24T09:20:44.776Z,-4.30
2019-01-24T09:23:14.273Z,-4.20
2019-01-24T09:25:43.795Z,-4.10
2019-01-24T09:28:14.939Z,-4.20
2019-01-24T09:30:44.879Z,-4.10
2019-01-24T09:33:14.675Z,-4.00
2019-01-24T09:35:44.264Z,-4.00
2019-01-24T09:38:13.806Z,-4.00
2019-01-24T09:40:43.303Z,-3.90
2019-01-24T09:43:12.923Z,-4.00
2019-01-24T09:45:42.509Z,-3.90
2019-01-24T09:48:12.031Z,-3.80
2019-01-24T09:50:41.735Z,-3.60
2019-01-24T09:53:11.281Z,-3.60
2019-01-24T09:55:41.537Z,-3.50
2019-01-24T09:58:11.205Z,-3.60
2019-01-24T10:00:40.682Z,-3.70
2019-01-24T10:03:10.302Z,-3.70
2019-01-24T10:05:39.919Z,-3.70
2019-01-24T10:08:09.889Z,-3.70
2019-01-24T10:10:39.464Z,-3.80
2019-01-24T10:13:08.990Z,-3.80
2019-01-24T10:15:38.861Z,-3.80
2019-01-24T10:18:08.815Z,-3.80
2019-01-24T10:20:38.279Z,-3.60
2019-01-24T10:23:07.719Z,-3.50
2019-01-24T10:25:41.369Z,-3.60
2019-01-24T10:28:11.155Z,-3.50
2019-01-24T10:30:43.046Z,-3.50
2019-01-24T10:33:12.054Z,-3.40
2019-01-24T10:35:41.516Z,-3.20
2019-01-24T10:38:10.951Z,-3.20
2019-01-24T10:40:40.639Z,-3.10
2019-01-24T10:43:10.163Z,-3.30
2019-01-24T10:45:39.600Z,-3.30
2019-01-24T10:48:09.742Z,-2.90
2019-01-24T10:50:39.825Z,-2.90
2019-01-24T10:53:09.292Z,-1.90
2019-01-24T10:55:38.918Z,-2.00
2019-01-24T10:58:08.664Z,-1.70
2019-01-24T11:00:41.688Z,-1.50
2019-01-24T11:03:16.470Z,-1.30
2019-01-24T11:05:45.992Z,-0.50
2019-01-24T11:08:16.110Z,-0.80
2019-01-24T11:10:46.764Z,-0.40
2019-01-24T11:13:16.286Z,-0.10
2019-01-24T11:15:46.552Z,-0.10
2019-01-24T11:18:15.976Z,-1.10
2019-01-24T11:20:45.709Z,-0.80
2019-01-24T11:23:15.148Z,0.30
2019-01-24T11:25:44.578Z,-0.30
2019-01-24T11:28:14.057Z,-0.90
2019-01-24T11:30:43.686Z,-0.90
2019-01-24T11:33:13.193Z,-0.20
2019-01-24T11:35:42.606Z,0.60
2019-01-24T11:38:12.154Z,0.80
2019-01-24T11:40:41.623Z,0.70
2019-01-24T11:43:11.182Z,-0.30
2019-01-24T11:45:43.407Z,0.80
2019-01-24T11:48:13.002Z,0.40
2019-01-24T11:50:42.518Z,0.70
2019-01-24T11:53:11.961Z,1.10
2019-01-24T11:55:41.740Z,0.90
2019-01-24T11:58:11.213Z,0.90
2019-01-24T12:00:49.291Z,0.40
2019-01-24T12:03:18.989Z,-0.10
2019-01-24T12:05:48.481Z,0.00
2019-01-24T12:08:17.914Z,-0.40
2019-01-24T12:10:47.412Z,1.40
2019-01-24T12:13:16.915Z,1.70
2019-01-24T12:15:46.395Z,1.50
2019-01-24T12:18:15.874Z,1.50
2019-01-24T12:20:45.621Z,1.50
2019-01-24T12:23:15.081Z,2.00
2019-01-24T12:25:44.557Z,2.80
2019-01-24T12:28:14.190Z,1.90
2019-01-24T12:30:43.556Z,2.40
2019-01-24T12:33:13.045Z,2.90
2019-01-24T12:35:42.980Z,2.00
2019-01-24T12:38:12.446Z,2.60
2019-01-24T12:40:42.570Z,1.90
2019-01-24T12:43:11.981Z,4.00
2019-01-24T12:45:41.733Z,3.30
2019-01-24T12:48:11.232Z,3.30
2019-01-24T12:50:41.238Z,4.60
2019-01-24T12:53:10.696Z,5.10
2019-01-24T12:55:40.111Z,4.50
2019-01-24T12:58:09.672Z,4.50
2019-01-24T13:00:40.079Z,4.90
2019-01-24T13:03:09.573Z,3.70
2019-01-24T13:05:39.268Z,3.40
2019-01-24T13:08:08.787Z,2.50
2019-01-24T13:10:38.424Z,2.20
2019-01-24T13:13:08.166Z,0.80
2019-01-24T13:15:37.744Z,1.30
2019-01-24T13:18:07.466Z,2.30
2019-01-24T13:20:36.934Z,2.40
2019-01-24T13:23:07.713Z,0.70
2019-01-24T13:25:37.192Z,-0.10
2019-01-24T13:28:07.416Z,-0.30
2019-01-24T13:30:36.940Z,-0.60
2019-01-24T13:33:07.615Z,-0.70
2019-01-24T13:35:37.452Z,-0.70
2019-01-24T13:38:07.564Z,-0.50
2019-01-24T13:40:37.195Z,-0.10
2019-01-24T13:43:07.569Z,-0.60
2019-01-24T13:45:38.924Z,-0.90
2019-01-24T13:48:08.528Z,-1.00
2019-01-24T13:50:38.198Z,0.00
2019-01-24T13:53:08.276Z,0.20
2019-01-24T13:55:39.336Z,-0.10
2019-01-24T13:58:08.985Z,-0.60
2019-01-24T14:00:39.892Z,-0.40
2019-01-24T14:03:56.430Z,-0.70
2019-01-24T14:06:26.040Z,-1.10
2019-01-24T14:08:55.478Z,-1.70
2019-01-24T14:11:24.930Z,-2.30
2019-01-24T14:13:54.793Z,-2.40
2019-01-24T14:16:24.237Z,-2.70
2019-01-24T14:18:53.674Z,-2.90
2019-01-24T14:21:23.348Z,-3.00
2019-01-24T14:23:52.796Z,-3.20
2019-01-24T14:26:22.276Z,-1.90
2019-01-24T14:28:51.866Z,-3.30
2019-01-24T14:31:21.547Z,-3.50
2019-01-24T14:33:51.252Z,-2.10
2019-01-24T14:36:25.281Z,-3.60
2019-01-24T14:38:52.207Z,-3.70
2019-01-24T14:41:21.875Z,-3.70
2019-01-24T14:43:51.311Z,-3.90
2019-01-24T14:46:20.783Z,-3.90
2019-01-24T14:48:50.753Z,-4.00
2019-01-24T14:51:20.174Z,-4.00
2019-01-24T14:53:50.041Z,-4.10
2019-01-24T14:56:19.516Z,-4.20
2019-01-24T14:58:49.135Z,-4.20
2019-01-24T15:01:22.447Z,-4.30
2019-01-24T15:03:51.928Z,-4.30
2019-01-24T15:06:21.399Z,-4.50
2019-01-24T15:08:50.904Z,-4.50
2019-01-24T15:11:20.347Z,-4.60
2019-01-24T15:13:49.810Z,-4.50
2019-01-24T15:16:19.284Z,-4.60
2019-01-24T15:18:48.864Z,-4.70
2019-01-24T15:21:18.350Z,-4.70
2019-01-24T15:23:47.845Z,-4.70
2019-01-24T15:26:17.354Z,-4.80
2019-01-24T15:28:46.937Z,-4.90
2019-01-24T15:31:16.395Z,-4.90
2019-01-24T15:33:45.852Z,-5.00
2019-01-24T15:36:15.737Z,-5.10
2019-01-24T15:38:45.263Z,-5.10
2019-01-24T15:41:14.697Z,-5.20
2019-01-24T15:43:44.148Z,-5.20
2019-01-24T15:46:13.735Z,-5.20
2019-01-24T15:48:43.291Z,-5.30
2019-01-24T15:51:12.864Z,-5.20
2019-01-24T15:53:42.298Z,-5.30
2019-01-24T15:56:11.803Z,-5.30
2019-01-24T15:58:41.290Z,-5.30
2019-01-24T16:01:10.780Z,-5.30
2019-01-24T16:03:40.281Z,-5.30
2019-01-24T16:06:09.954Z,-5.30
2019-01-24T16:08:39.389Z,-5.30
2019-01-24T16:11:08.884Z,-5.30
2019-01-24T16:13:38.417Z,-5.40
2019-01-24T16:16:08.004Z,-5.40
2019-01-24T16:18:37.450Z,-5.40
2019-01-24T16:21:06.946Z,-5.40
2019-01-24T16:23:36.371Z,-5.40
2019-01-24T16:26:06.320Z,-5.40
2019-01-24T16:28:36.013Z,-5.50
2019-01-24T16:31:05.796Z,-5.50
2019-01-24T16:33:35.676Z,-5.50
2019-01-24T16:36:05.864Z,-5.50
2019-01-24T16:38:35.376Z,-5.50
2019-01-24T16:41:04.811Z,-5.50
2019-01-24T16:43:34.637Z,-5.50
2019-01-24T16:46:04.243Z,-5.50
2019-01-24T16:48:33.731Z,-5.50
2019-01-24T16:51:03.186Z,-5.50
2019-01-24T16:53:32.638Z,-5.50
2019-01-24T16:56:02.216Z,-5.50
2019-01-24T16:58:31.708Z,-5.50
2019-01-24T17:01:19.180Z,-5.60
2019-01-24T17:03:48.694Z,-5.60
2019-01-24T17:06:18.192Z,-5.60
2019-01-24T17:08:48.579Z,-5.50
2019-01-24T17:11:18.413Z,-5.60
2019-01-24T17:13:48.292Z,-5.60
2019-01-24T17:16:17.741Z,-5.70
2019-01-24T17:18:47.358Z,-5.70
2019-01-24T17:21:16.821Z,-5.70
2019-01-24T17:23:47.739Z,-5.70
2019-01-24T17:26:17.245Z,-5.70
2019-01-24T17:28:46.736Z,-5.70
2019-01-24T17:31:16.240Z,-5.70
2019-01-24T17:33:45.812Z,-5.70
2019-01-24T17:36:15.405Z,-5.70
2019-01-24T17:38:44.893Z,-5.70
2019-01-24T17:41:14.668Z,-5.70
2019-01-24T17:43:44.210Z,-5.70
2019-01-24T17:46:13.733Z,-5.70
2019-01-24T17:48:43.220Z,-5.70
2019-01-24T17:51:12.703Z,-5.80
2019-01-24T17:53:42.206Z,-5.70
2019-01-24T17:56:11.930Z,-5.70
2019-01-24T17:58:41.384Z,-5.80
2019-01-24T18:01:10.917Z,-5.80
2019-01-24T18:03:40.494Z,-5.90
2019-01-24T18:06:10.041Z,-5.90
2019-01-24T18:08:39.431Z,-5.90
2019-01-24T18:11:08.962Z,-6.00
2019-01-24T18:13:38.422Z,-6.00
2019-01-24T18:16:07.898Z,-6.00
2019-01-24T18:18:38.004Z,-5.90
2019-01-24T18:21:07.594Z,-4.90
2019-01-24T18:23:37.308Z,-5.90
2019-01-24T18:26:06.814Z,-6.00
2019-01-24T18:28:36.215Z,-6.00
2019-01-24T18:31:05.954Z,-6.00
2019-01-24T18:33:35.386Z,-6.10
2019-01-24T18:36:05.165Z,-6.10
2019-01-24T18:38:38.487Z,-6.10
2019-01-24T18:41:08.776Z,-6.20
2019-01-24T18:43:37.228Z,-6.10
2019-01-24T18:46:06.803Z,-6.10
2019-01-24T18:48:36.472Z,-6.30
2019-01-24T18:51:06.008Z,-6.30
2019-01-24T18:53:35.448Z,-6.30
2019-01-24T18:56:05.009Z,-6.30
2019-01-24T18:58:35.012Z,-6.40
2019-01-24T19:01:04.707Z,-6.40
2019-01-24T19:03:34.233Z,-6.50
2019-01-24T19:06:06.172Z,-6.50
2019-01-24T19:08:35.712Z,-6.50
2019-01-24T19:11:05.494Z,-6.50
2019-01-24T19:13:34.948Z,-6.60
2019-01-24T19:16:04.592Z,-6.70
2019-01-24T19:18:34.017Z,-6.70
2019-01-24T19:21:03.561Z,-6.60
2019-01-24T19:23:33.095Z,-6.60
2019-01-24T19:26:02.604Z,-6.70
2019-01-24T19:28:32.105Z,-6.70
2019-01-24T19:31:01.970Z,-6.70
2019-01-24T19:33:31.483Z,-6.70
2019-01-24T19:36:01.329Z,-6.60
2019-01-24T19:38:30.745Z,-6.60
2019-01-24T19:41:00.605Z,-6.50
2019-01-24T19:43:30.042Z,-6.50
2019-01-24T19:45:59.449Z,-6.50
2019-01-24T19:48:29.177Z,-6.40
2019-01-24T19:50:58.570Z,-6.50
2019-01-24T19:53:28.042Z,-6.50
2019-01-24T19:55:57.809Z,-6.40
2019-01-24T19:58:27.308Z,-6.40
2019-01-24T20:00:57.465Z,-6.40
2019-01-24T20:03:26.953Z,-6.30
2019-01-24T20:05:56.443Z,-6.30
2019-01-24T20:08:26.046Z,-6.20
2019-01-24T20:10:55.502Z,-6.20
2019-01-24T20:13:24.964Z,-6.10
2019-01-24T20:15:54.890Z,-6.20
2019-01-24T20:18:24.643Z,-6.10
2019-01-24T20:20:54.167Z,-6.10
2019-01-24T20:23:23.582Z,-6.00
2019-01-24T20:25:53.399Z,-6.00
2019-01-24T20:28:23.001Z,-6.10
2019-01-24T20:30:52.450Z,-6.00
2019-01-24T20:33:21.908Z,-6.00
2019-01-24T20:35:57.304Z,-6.00
2019-01-24T20:38:27.011Z,-6.00
2019-01-24T20:40:56.439Z,-6.00
2019-01-24T20:43:25.909Z,-6.00
2019-01-24T20:45:55.379Z,-6.00
2019-01-24T20:48:24.870Z,-6.00
2019-01-24T20:50:55.151Z,-6.00
2019-01-24T20:53:24.674Z,-6.00
2019-01-24T20:55:54.158Z,-6.00
2019-01-24T20:58:23.606Z,-5.90
2019-01-24T21:00:53.123Z,-5.90
2019-01-24T21:03:22.692Z,-6.00
2019-01-24T21:05:52.212Z,-6.00
2019-01-24T21:08:21.657Z,-5.90
2019-01-24T21:10:51.131Z,-6.00
2019-01-24T21:13:20.567Z,-5.90
2019-01-24T21:15:50.108Z,-6.00
2019-01-24T21:18:19.615Z,-5.90
2019-01-24T21:20:49.084Z,-6.00
2019-01-24T21:23:18.548Z,-6.00
2019-01-24T21:25:48.138Z,-5.90
2019-01-24T21:28:17.624Z,-6.00
2019-01-24T21:30:47.129Z,-6.00
2019-01-24T21:33:16.585Z,-5.90
2019-01-24T21:35:46.064Z,-5.90
2019-01-24T21:38:15.508Z,-5.80
2019-01-24T21:40:44.961Z,-5.90
2019-01-24T21:43:14.415Z,-5.90
2019-01-24T21:45:43.856Z,-5.90
2019-01-24T21:48:13.476Z,-5.90
2019-01-24T21:50:42.928Z,-5.90
2019-01-24T21:53:12.357Z,-5.90
2019-01-24T21:55:41.876Z,-5.90
2019-01-24T21:58:11.522Z,-5.90
2019-01-24T22:00:41.019Z,-5.90
2019-01-24T22:03:10.476Z,-5.90
2019-01-24T22:05:39.990Z,-6.00
2019-01-24T22:08:09.431Z,-6.00
2019-01-24T22:10:39.292Z,-6.00
2019-01-24T22:13:08.927Z,-6.00
2019-01-24T22:15:38.742Z,-6.00
2019-01-24T22:18:09.966Z,-6.10
2019-01-24T22:20:39.566Z,-6.10
2019-01-24T22:23:09.406Z,-6.00
2019-01-24T22:25:39.877Z,-6.00
2019-01-24T22:28:09.628Z,-6.00
2019-01-24T22:30:54.662Z,-6.00
2019-01-24T22:33:24.078Z,-6.00
2019-01-24T22:35:53.594Z,-6.00
2019-01-24T22:38:23.210Z,-6.00
2019-01-24T22:40:52.709Z,-6.10
2019-01-24T22:43:22.232Z,-6.10
2019-01-24T22:45:51.743Z,-6.10
2019-01-24T22:48:21.243Z,-6.10
2019-01-24T22:50:50.598Z,-6.00
2019-01-24T22:53:20.168Z,-6.10
2019-01-24T22:55:49.694Z,-6.00
2019-01-24T22:58:19.105Z,-6.10
2019-01-24T23:01:12.126Z,-6.00
2019-01-24T23:03:47.165Z,-6.00
2019-01-24T23:06:16.709Z,-6.10
2019-01-24T23:08:46.180Z,-6.10
2019-01-24T23:11:15.651Z,-6.00
2019-01-24T23:13:45.487Z,-6.10
2019-01-24T23:16:14.943Z,-6.10
2019-01-24T23:18:44.396Z,-6.10
2019-01-24T23:21:13.999Z,-6.00
2019-01-24T23:23:43.466Z,-6.10
2019-01-24T23:26:12.937Z,-6.00
2019-01-24T23:28:42.776Z,-6.10
2019-01-24T23:31:12.246Z,-6.10
2019-01-24T23:33:41.917Z,-6.10
2019-01-24T23:36:11.504Z,-6.00
2019-01-24T23:38:40.964Z,-6.00
2019-01-24T23:41:10.691Z,-6.10
2019-01-24T23:43:40.784Z,-6.10
2019-01-24T23:46:10.346Z,-6.00
2019-01-24T23:48:39.772Z,-6.00
2019-01-24T23:51:09.575Z,-6.00
2019-01-24T23:53:39.198Z,-6.00
2019-01-24T23:56:08.647Z,-6.00
2019-01-24T23:58:38.203Z,-6.10
